sensor_id;sensor_type;location;lat;lon;timestamp;P1;durP1;ratioP1;P2;durP2;ratioP2
28605;SDS011;46498;49.968;7.754;2023-05-21T00:04:43;33.70;;;18.25;;
28605;SDS011;46498;49.968;7.754;2023-05-21T00:09:44;31.05;;;17.48;;
28605;SDS011;46498;49.968;7.754;2023-05-21T00:14:45;25.55;;;16.80;;
28605;SDS011;46498;49.968;7.754;2023-05-21T00:19:46;35.33;;;18.10;;
28605;SDS011;46498;49.968;7.754;2023-05-21T00:24:47;32.35;;;19.02;;
28605;SDS011;46498;49.968;7.754;2023-05-21T00:29:48;31.58;;;19.33;;
28605;SDS011;46498;49.968;7.754;2023-05-21T00:34:49;29.17;;;17.40;;
28605;SDS011;46498;49.968;7.754;2023-05-21T00:39:50;29.83;;;18.05;;
28605;SDS011;46498;49.968;7.754;2023-05-21T00:44:51;28.75;;;17.10;;
28605;SDS011;46498;49.968;7.754;2023-05-21T00:49:53;31.43;;;18.17;;
28605;SDS011;46498;49.968;7.754;2023-05-21T00:54:54;27.40;;;16.85;;
28605;SDS011;46498;49.968;7.754;2023-05-21T00:59:56;27.58;;;17.12;;
28605;SDS011;46498;49.968;7.754;2023-05-21T01:04:56;27.20;;;17.15;;
28605;SDS011;46498;49.968;7.754;2023-05-21T01:10:03;28.83;;;17.48;;
28605;SDS011;46498;49.968;7.754;2023-05-21T01:15:07;27.40;;;16.95;;
28605;SDS011;46498;49.968;7.754;2023-05-21T01:20:08;28.42;;;17.25;;
28605;SDS011;46498;49.968;7.754;2023-05-21T01:25:10;28.62;;;16.23;;
28605;SDS011;46498;49.968;7.754;2023-05-21T01:30:12;24.67;;;16.08;;
28605;SDS011;46498;49.968;7.754;2023-05-21T01:35:19;24.33;;;16.20;;
28605;SDS011;46498;49.968;7.754;2023-05-21T01:40:30;28.02;;;18.17;;
28605;SDS011;46498;49.968;7.754;2023-05-21T01:45:38;27.73;;;17.25;;
28605;SDS011;46498;49.968;7.754;2023-05-21T01:50:41;28.45;;;17.80;;
28605;SDS011;46498;49.968;7.754;2023-05-21T01:55:43;32.50;;;18.58;;
28605;SDS011;46498;49.968;7.754;2023-05-21T02:00:45;31.50;;;17.85;;
28605;SDS011;46498;49.968;7.754;2023-05-21T02:05:46;27.08;;;16.95;;
28605;SDS011;46498;49.968;7.754;2023-05-21T02:10:48;36.63;;;18.20;;
28605;SDS011;46498;49.968;7.754;2023-05-21T02:15:54;29.95;;;17.65;;
28605;SDS011;46498;49.968;7.754;2023-05-21T02:20:56;30.90;;;18.47;;
28605;SDS011;46498;49.968;7.754;2023-05-21T02:25:57;33.65;;;17.95;;
28605;SDS011;46498;49.968;7.754;2023-05-21T02:30:58;34.45;;;18.30;;
28605;SDS011;46498;49.968;7.754;2023-05-21T02:35:59;30.85;;;18.98;;
28605;SDS011;46498;49.968;7.754;2023-05-21T02:41:00;32.88;;;19.27;;
28605;SDS011;46498;49.968;7.754;2023-05-21T02:46:01;34.33;;;20.15;;
28605;SDS011;46498;49.968;7.754;2023-05-21T02:51:03;27.67;;;17.48;;
28605;SDS011;46498;49.968;7.754;2023-05-21T02:56:04;30.12;;;18.20;;
28605;SDS011;46498;49.968;7.754;2023-05-21T03:01:05;31.30;;;18.27;;
28605;SDS011;46498;49.968;7.754;2023-05-21T03:06:06;31.40;;;18.37;;
28605;SDS011;46498;49.968;7.754;2023-05-21T03:11:09;30.90;;;18.77;;
28605;SDS011;46498;49.968;7.754;2023-05-21T03:16:10;36.20;;;18.55;;
28605;SDS011;46498;49.968;7.754;2023-05-21T03:21:11;32.28;;;18.73;;
28605;SDS011;46498;49.968;7.754;2023-05-21T03:26:14;31.65;;;17.27;;
28605;SDS011;46498;49.968;7.754;2023-05-21T03:31:16;30.35;;;17.00;;
28605;SDS011;46498;49.968;7.754;2023-05-21T03:36:22;32.33;;;17.62;;
28605;SDS011;46498;49.968;7.754;2023-05-21T03:41:23;31.67;;;17.02;;
28605;SDS011;46498;49.968;7.754;2023-05-21T03:46:28;30.92;;;17.62;;
28605;SDS011;46498;49.968;7.754;2023-05-21T03:51:38;33.38;;;17.98;;
28605;SDS011;46498;49.968;7.754;2023-05-21T03:56:41;28.75;;;17.50;;
28605;SDS011;46498;49.968;7.754;2023-05-21T04:01:42;29.90;;;17.77;;
28605;SDS011;46498;49.968;7.754;2023-05-21T04:11:46;30.73;;;17.75;;
28605;SDS011;46498;49.968;7.754;2023-05-21T04:16:47;32.58;;;18.10;;
28605;SDS011;46498;49.968;7.754;2023-05-21T04:21:48;28.55;;;16.70;;
28605;SDS011;46498;49.968;7.754;2023-05-21T04:26:49;35.63;;;17.73;;
28605;SDS011;46498;49.968;7.754;2023-05-21T04:31:51;27.75;;;17.35;;
28605;SDS011;46498;49.968;7.754;2023-05-21T04:36:52;30.45;;;17.67;;
28605;SDS011;46498;49.968;7.754;2023-05-21T04:41:53;30.40;;;17.20;;
28605;SDS011;46498;49.968;7.754;2023-05-21T04:46:56;33.25;;;17.90;;
28605;SDS011;46498;49.968;7.754;2023-05-21T04:51:58;29.43;;;18.87;;
28605;SDS011;46498;49.968;7.754;2023-05-21T04:56:59;33.00;;;17.25;;
28605;SDS011;46498;49.968;7.754;2023-05-21T05:02:00;28.50;;;18.50;;
28605;SDS011;46498;49.968;7.754;2023-05-21T05:07:01;31.60;;;17.10;;
28605;SDS011;46498;49.968;7.754;2023-05-21T05:12:02;26.85;;;17.23;;
28605;SDS011;46498;49.968;7.754;2023-05-21T05:17:04;30.80;;;17.37;;
28605;SDS011;46498;49.968;7.754;2023-05-21T05:22:05;33.00;;;16.98;;
28605;SDS011;46498;49.968;7.754;2023-05-21T05:27:07;27.77;;;16.45;;
28605;SDS011;46498;49.968;7.754;2023-05-21T05:32:08;29.50;;;15.82;;
28605;SDS011;46498;49.968;7.754;2023-05-21T05:37:09;27.73;;;16.87;;
28605;SDS011;46498;49.968;7.754;2023-05-21T05:42:11;28.00;;;16.48;;
28605;SDS011;46498;49.968;7.754;2023-05-21T05:47:11;29.48;;;17.23;;
28605;SDS011;46498;49.968;7.754;2023-05-21T05:52:13;30.77;;;16.95;;
28605;SDS011;46498;49.968;7.754;2023-05-21T05:57:14;29.48;;;17.77;;
28605;SDS011;46498;49.968;7.754;2023-05-21T06:02:15;28.08;;;16.87;;
28605;SDS011;46498;49.968;7.754;2023-05-21T06:07:17;27.98;;;16.60;;
28605;SDS011;46498;49.968;7.754;2023-05-21T06:12:18;29.23;;;16.33;;
28605;SDS011;46498;49.968;7.754;2023-05-21T06:17:19;28.23;;;15.93;;
28605;SDS011;46498;49.968;7.754;2023-05-21T06:22:20;25.83;;;16.52;;
28605;SDS011;46498;49.968;7.754;2023-05-21T06:27:21;28.90;;;16.20;;
28605;SDS011;46498;49.968;7.754;2023-05-21T06:32:23;34.08;;;17.30;;
28605;SDS011;46498;49.968;7.754;2023-05-21T06:37:25;29.83;;;16.55;;
28605;SDS011;46498;49.968;7.754;2023-05-21T06:42:27;26.77;;;14.75;;
28605;SDS011;46498;49.968;7.754;2023-05-21T06:54:16;25.50;;;15.73;;
28605;SDS011;46498;49.968;7.754;2023-05-21T06:59:18;25.95;;;15.13;;
28605;SDS011;46498;49.968;7.754;2023-05-21T07:04:19;26.17;;;15.43;;
28605;SDS011;46498;49.968;7.754;2023-05-21T07:09:20;25.17;;;14.23;;
28605;SDS011;46498;49.968;7.754;2023-05-21T07:14:23;20.40;;;13.62;;
28605;SDS011;46498;49.968;7.754;2023-05-21T07:19:24;20.75;;;13.50;;
28605;SDS011;46498;49.968;7.754;2023-05-21T07:24:27;26.57;;;13.70;;
28605;SDS011;46498;49.968;7.754;2023-05-21T07:29:28;18.65;;;12.70;;
28605;SDS011;46498;49.968;7.754;2023-05-21T07:34:29;20.20;;;13.05;;
28605;SDS011;46498;49.968;7.754;2023-05-21T07:39:30;18.95;;;12.90;;
28605;SDS011;46498;49.968;7.754;2023-05-21T07:44:31;21.10;;;12.52;;
28605;SDS011;46498;49.968;7.754;2023-05-21T07:49:32;23.40;;;13.75;;
28605;SDS011;46498;49.968;7.754;2023-05-21T07:54:33;19.87;;;12.13;;
28605;SDS011;46498;49.968;7.754;2023-05-21T07:59:35;22.62;;;13.13;;
28605;SDS011;46498;49.968;7.754;2023-05-21T08:04:36;23.35;;;11.98;;
28605;SDS011;46498;49.968;7.754;2023-05-21T08:09:41;17.83;;;12.07;;
28605;SDS011;46498;49.968;7.754;2023-05-21T08:14:43;16.90;;;12.43;;
28605;SDS011;46498;49.968;7.754;2023-05-21T08:19:45;17.92;;;12.18;;
28605;SDS011;46498;49.968;7.754;2023-05-21T08:24:46;17.50;;;12.07;;
28605;SDS011;46498;49.968;7.754;2023-05-21T08:29:47;21.67;;;12.05;;
28605;SDS011;46498;49.968;7.754;2023-05-21T08:34:49;19.77;;;12.20;;
28605;SDS011;46498;49.968;7.754;2023-05-21T08:45:08;18.45;;;12.27;;
28605;SDS011;46498;49.968;7.754;2023-05-21T08:50:13;19.80;;;12.57;;
28605;SDS011;46498;49.968;7.754;2023-05-21T08:55:19;19.37;;;12.18;;
28605;SDS011;46498;49.968;7.754;2023-05-21T09:00:22;18.60;;;12.40;;
28605;SDS011;46498;49.968;7.754;2023-05-21T09:05:25;16.85;;;11.15;;
28605;SDS011;46498;49.968;7.754;2023-05-21T09:10:29;17.03;;;11.77;;
28605;SDS011;46498;49.968;7.754;2023-05-21T09:15:35;19.05;;;12.52;;
28605;SDS011;46498;49.968;7.754;2023-05-21T09:20:37;16.57;;;11.87;;
28605;SDS011;46498;49.968;7.754;2023-05-21T09:25:39;19.75;;;13.05;;
28605;SDS011;46498;49.968;7.754;2023-05-21T09:30:45;19.75;;;12.60;;
28605;SDS011;46498;49.968;7.754;2023-05-21T09:35:51;18.73;;;13.02;;
28605;SDS011;46498;49.968;7.754;2023-05-21T09:40:53;19.90;;;14.38;;
28605;SDS011;46498;49.968;7.754;2023-05-21T09:45:58;20.85;;;13.70;;
28605;SDS011;46498;49.968;7.754;2023-05-21T09:51:10;19.27;;;13.48;;
28605;SDS011;46498;49.968;7.754;2023-05-21T09:56:13;20.52;;;13.98;;
28605;SDS011;46498;49.968;7.754;2023-05-21T10:01:13;20.00;;;13.48;;
28605;SDS011;46498;49.968;7.754;2023-05-21T10:06:14;22.62;;;14.55;;
28605;SDS011;46498;49.968;7.754;2023-05-21T10:11:18;20.12;;;14.35;;
28605;SDS011;46498;49.968;7.754;2023-05-21T10:16:22;23.05;;;14.90;;
28605;SDS011;46498;49.968;7.754;2023-05-21T10:21:24;18.25;;;13.88;;
28605;SDS011;46498;49.968;7.754;2023-05-21T10:26:26;23.02;;;14.82;;
28605;SDS011;46498;49.968;7.754;2023-05-21T10:31:28;22.70;;;14.93;;
28605;SDS011;46498;49.968;7.754;2023-05-21T10:36:29;25.27;;;14.23;;
28605;SDS011;46498;49.968;7.754;2023-05-21T10:41:34;19.98;;;14.07;;
28605;SDS011;46498;49.968;7.754;2023-05-21T10:46:58;20.45;;;14.10;;
28605;SDS011;46498;49.968;7.754;2023-05-21T10:52:34;17.47;;;13.10;;
28605;SDS011;46498;49.968;7.754;2023-05-21T10:59:14;19.12;;;12.73;;
28605;SDS011;46498;49.968;7.754;2023-05-21T11:04:33;21.70;;;13.90;;
28605;SDS011;46498;49.968;7.754;2023-05-21T11:09:39;18.15;;;12.95;;
28605;SDS011;46498;49.968;7.754;2023-05-21T11:14:40;19.92;;;13.00;;
28605;SDS011;46498;49.968;7.754;2023-05-21T11:24:46;17.75;;;12.55;;
28605;SDS011;46498;49.968;7.754;2023-05-21T11:29:51;18.65;;;12.25;;
28605;SDS011;46498;49.968;7.754;2023-05-21T11:34:55;15.68;;;12.07;;
28605;SDS011;46498;49.968;7.754;2023-05-21T11:40:15;15.23;;;12.07;;
28605;SDS011;46498;49.968;7.754;2023-05-21T11:45:17;15.25;;;11.45;;
28605;SDS011;46498;49.968;7.754;2023-05-21T11:55:21;18.17;;;12.82;;
28605;SDS011;46498;49.968;7.754;2023-05-21T12:00:24;15.32;;;11.27;;
28605;SDS011;46498;49.968;7.754;2023-05-21T12:05:26;17.43;;;12.60;;
28605;SDS011;46498;49.968;7.754;2023-05-21T12:10:26;16.65;;;12.23;;
28605;SDS011;46498;49.968;7.754;2023-05-21T12:15:27;15.02;;;12.23;;
28605;SDS011;46498;49.968;7.754;2023-05-21T12:20:28;15.48;;;10.75;;
28605;SDS011;46498;49.968;7.754;2023-05-21T12:25:29;13.98;;;10.80;;
28605;SDS011;46498;49.968;7.754;2023-05-21T12:30:31;16.48;;;12.05;;
28605;SDS011;46498;49.968;7.754;2023-05-21T12:35:32;15.68;;;11.52;;
28605;SDS011;46498;49.968;7.754;2023-05-21T12:40:34;14.48;;;11.65;;
28605;SDS011;46498;49.968;7.754;2023-05-21T12:45:41;14.23;;;11.52;;
28605;SDS011;46498;49.968;7.754;2023-05-21T12:50:42;16.30;;;11.52;;
28605;SDS011;46498;49.968;7.754;2023-05-21T12:55:43;15.60;;;11.20;;
28605;SDS011;46498;49.968;7.754;2023-05-21T13:00:44;18.02;;;11.75;;
28605;SDS011;46498;49.968;7.754;2023-05-21T13:05:45;14.80;;;11.18;;
28605;SDS011;46498;49.968;7.754;2023-05-21T13:10:48;16.45;;;11.55;;
28605;SDS011;46498;49.968;7.754;2023-05-21T13:15:49;14.95;;;10.45;;
28605;SDS011;46498;49.968;7.754;2023-05-21T13:20:51;16.17;;;10.80;;
28605;SDS011;46498;49.968;7.754;2023-05-21T13:25:52;15.60;;;10.15;;
28605;SDS011;46498;49.968;7.754;2023-05-21T13:30:52;14.10;;;11.07;;
28605;SDS011;46498;49.968;7.754;2023-05-21T13:35:54;14.45;;;9.50;;
28605;SDS011;46498;49.968;7.754;2023-05-21T13:40:55;14.55;;;9.88;;
28605;SDS011;46498;49.968;7.754;2023-05-21T13:45:56;14.93;;;9.80;;
28605;SDS011;46498;49.968;7.754;2023-05-21T13:50:57;14.77;;;9.57;;
28605;SDS011;46498;49.968;7.754;2023-05-21T13:55:57;15.57;;;10.05;;
28605;SDS011;46498;49.968;7.754;2023-05-21T14:01:01;13.60;;;9.35;;
28605;SDS011;46498;49.968;7.754;2023-05-21T14:06:02;12.70;;;9.60;;
28605;SDS011;46498;49.968;7.754;2023-05-21T14:11:03;15.68;;;9.43;;
28605;SDS011;46498;49.968;7.754;2023-05-21T14:16:05;12.17;;;9.37;;
28605;SDS011;46498;49.968;7.754;2023-05-21T14:21:07;14.20;;;8.97;;
28605;SDS011;46498;49.968;7.754;2023-05-21T14:26:07;12.65;;;10.43;;
28605;SDS011;46498;49.968;7.754;2023-05-21T14:31:08;14.20;;;10.00;;
28605;SDS011;46498;49.968;7.754;2023-05-21T14:36:09;11.52;;;9.65;;
28605;SDS011;46498;49.968;7.754;2023-05-21T14:41:10;13.13;;;9.65;;
28605;SDS011;46498;49.968;7.754;2023-05-21T14:46:11;14.93;;;10.32;;
28605;SDS011;46498;49.968;7.754;2023-05-21T14:51:13;12.23;;;9.05;;
28605;SDS011;46498;49.968;7.754;2023-05-21T14:56:14;18.20;;;9.95;;
28605;SDS011;46498;49.968;7.754;2023-05-21T15:01:15;15.52;;;9.73;;
28605;SDS011;46498;49.968;7.754;2023-05-21T15:06:16;10.73;;;8.77;;
28605;SDS011;46498;49.968;7.754;2023-05-21T15:11:17;17.37;;;11.55;;
28605;SDS011;46498;49.968;7.754;2023-05-21T15:16:18;12.07;;;9.05;;
28605;SDS011;46498;49.968;7.754;2023-05-21T15:21:20;13.35;;;9.70;;
28605;SDS011;46498;49.968;7.754;2023-05-21T15:26:21;13.45;;;9.32;;
28605;SDS011;46498;49.968;7.754;2023-05-21T15:31:24;14.52;;;9.48;;
28605;SDS011;46498;49.968;7.754;2023-05-21T15:36:25;17.45;;;11.30;;
28605;SDS011;46498;49.968;7.754;2023-05-21T15:41:26;15.73;;;12.07;;
28605;SDS011;46498;49.968;7.754;2023-05-21T15:46:27;12.55;;;10.32;;
28605;SDS011;46498;49.968;7.754;2023-05-21T15:51:28;13.02;;;9.13;;
28605;SDS011;46498;49.968;7.754;2023-05-21T15:56:29;16.12;;;10.80;;
28605;SDS011;46498;49.968;7.754;2023-05-21T16:01:30;13.43;;;10.43;;
28605;SDS011;46498;49.968;7.754;2023-05-21T16:06:31;13.27;;;9.53;;
28605;SDS011;46498;49.968;7.754;2023-05-21T16:11:34;13.77;;;10.07;;
28605;SDS011;46498;49.968;7.754;2023-05-21T16:16:34;13.00;;;9.90;;
28605;SDS011;46498;49.968;7.754;2023-05-21T16:21:36;12.52;;;9.60;;
28605;SDS011;46498;49.968;7.754;2023-05-21T16:26:37;15.75;;;9.80;;
28605;SDS011;46498;49.968;7.754;2023-05-21T16:31:38;16.95;;;10.63;;
28605;SDS011;46498;49.968;7.754;2023-05-21T16:36:38;13.88;;;9.25;;
28605;SDS011;46498;49.968;7.754;2023-05-21T16:41:39;17.75;;;11.85;;
28605;SDS011;46498;49.968;7.754;2023-05-21T16:46:42;15.18;;;9.55;;
28605;SDS011;46498;49.968;7.754;2023-05-21T16:51:43;13.57;;;9.90;;
28605;SDS011;46498;49.968;7.754;2023-05-21T16:56:44;15.60;;;9.93;;
28605;SDS011;46498;49.968;7.754;2023-05-21T17:01:45;12.02;;;9.77;;
28605;SDS011;46498;49.968;7.754;2023-05-21T17:06:46;16.12;;;9.93;;
28605;SDS011;46498;49.968;7.754;2023-05-21T17:11:46;12.45;;;9.80;;
28605;SDS011;46498;49.968;7.754;2023-05-21T17:16:48;14.93;;;10.10;;
28605;SDS011;46498;49.968;7.754;2023-05-21T17:21:48;15.48;;;9.75;;
28605;SDS011;46498;49.968;7.754;2023-05-21T17:26:51;15.15;;;9.73;;
28605;SDS011;46498;49.968;7.754;2023-05-21T17:31:52;10.80;;;9.07;;
28605;SDS011;46498;49.968;7.754;2023-05-21T17:36:53;10.68;;;8.75;;
28605;SDS011;46498;49.968;7.754;2023-05-21T17:41:55;11.53;;;9.20;;
28605;SDS011;46498;49.968;7.754;2023-05-21T17:46:56;12.18;;;9.10;;
28605;SDS011;46498;49.968;7.754;2023-05-21T17:51:57;11.65;;;8.90;;
28605;SDS011;46498;49.968;7.754;2023-05-21T17:56:59;12.40;;;9.05;;
28605;SDS011;46498;49.968;7.754;2023-05-21T18:02:00;11.38;;;9.07;;
28605;SDS011;46498;49.968;7.754;2023-05-21T18:07:01;11.43;;;8.82;;
28605;SDS011;46498;49.968;7.754;2023-05-21T18:12:02;15.23;;;9.40;;
28605;SDS011;46498;49.968;7.754;2023-05-21T18:17:05;12.55;;;8.82;;
28605;SDS011;46498;49.968;7.754;2023-05-21T18:22:06;13.35;;;9.60;;
28605;SDS011;46498;49.968;7.754;2023-05-21T18:27:07;15.40;;;10.85;;
28605;SDS011;46498;49.968;7.754;2023-05-21T18:32:08;14.95;;;9.70;;
28605;SDS011;46498;49.968;7.754;2023-05-21T18:42:12;16.42;;;11.73;;
28605;SDS011;46498;49.968;7.754;2023-05-21T18:47:14;16.15;;;11.57;;
28605;SDS011;46498;49.968;7.754;2023-05-21T18:52:15;14.85;;;11.23;;
28605;SDS011;46498;49.968;7.754;2023-05-21T18:57:16;16.40;;;12.32;;
28605;SDS011;46498;49.968;7.754;2023-05-21T19:02:18;17.67;;;12.13;;
28605;SDS011;46498;49.968;7.754;2023-05-21T19:07:18;16.30;;;12.00;;
28605;SDS011;46498;49.968;7.754;2023-05-21T19:12:20;15.00;;;12.07;;
28605;SDS011;46498;49.968;7.754;2023-05-21T19:17:21;17.55;;;12.25;;
28605;SDS011;46498;49.968;7.754;2023-05-21T19:22:22;15.43;;;12.82;;
28605;SDS011;46498;49.968;7.754;2023-05-21T19:27:24;19.87;;;13.10;;
28605;SDS011;46498;49.968;7.754;2023-05-21T19:32:25;15.02;;;12.25;;
28605;SDS011;46498;49.968;7.754;2023-05-21T19:37:26;18.80;;;12.88;;
28605;SDS011;46498;49.968;7.754;2023-05-21T19:42:27;23.17;;;14.10;;
28605;SDS011;46498;49.968;7.754;2023-05-21T19:47:28;16.60;;;12.85;;
28605;SDS011;46498;49.968;7.754;2023-05-21T19:52:30;20.58;;;13.55;;
28605;SDS011;46498;49.968;7.754;2023-05-21T19:57:31;17.60;;;13.65;;
28605;SDS011;46498;49.968;7.754;2023-05-21T20:02:32;18.20;;;13.75;;
28605;SDS011;46498;49.968;7.754;2023-05-21T20:07:34;16.53;;;12.97;;
28605;SDS011;46498;49.968;7.754;2023-05-21T20:12:35;19.10;;;13.43;;
28605;SDS011;46498;49.968;7.754;2023-05-21T20:17:36;19.12;;;13.35;;
28605;SDS011;46498;49.968;7.754;2023-05-21T20:22:38;16.70;;;13.70;;
28605;SDS011;46498;49.968;7.754;2023-05-21T20:27:39;23.10;;;14.43;;
28605;SDS011;46498;49.968;7.754;2023-05-21T20:32:40;20.63;;;14.53;;
28605;SDS011;46498;49.968;7.754;2023-05-21T20:37:41;22.40;;;15.40;;
28605;SDS011;46498;49.968;7.754;2023-05-21T20:42:42;20.83;;;14.48;;
28605;SDS011;46498;49.968;7.754;2023-05-21T20:47:44;20.37;;;14.90;;
28605;SDS011;46498;49.968;7.754;2023-05-21T20:52:47;18.15;;;14.80;;
28605;SDS011;46498;49.968;7.754;2023-05-21T20:57:48;20.75;;;14.75;;
28605;SDS011;46498;49.968;7.754;2023-05-21T21:02:49;20.52;;;15.20;;
28605;SDS011;46498;49.968;7.754;2023-05-21T21:07:50;21.12;;;14.95;;
28605;SDS011;46498;49.968;7.754;2023-05-21T21:12:55;24.70;;;15.52;;
28605;SDS011;46498;49.968;7.754;2023-05-21T21:17:56;18.33;;;14.52;;
28605;SDS011;46498;49.968;7.754;2023-05-21T21:22:57;21.02;;;15.68;;
28605;SDS011;46498;49.968;7.754;2023-05-21T21:27:58;24.45;;;16.25;;
28605;SDS011;46498;49.968;7.754;2023-05-21T21:32:59;30.30;;;16.65;;
28605;SDS011;46498;49.968;7.754;2023-05-21T21:38:01;22.13;;;15.43;;
28605;SDS011;46498;49.968;7.754;2023-05-21T21:43:04;23.40;;;16.85;;
28605;SDS011;46498;49.968;7.754;2023-05-21T21:48:05;24.37;;;15.15;;
28605;SDS011;46498;49.968;7.754;2023-05-21T21:53:06;24.92;;;16.42;;
28605;SDS011;46498;49.968;7.754;2023-05-21T21:58:09;21.50;;;15.25;;
28605;SDS011;46498;49.968;7.754;2023-05-21T22:03:10;22.23;;;16.58;;
28605;SDS011;46498;49.968;7.754;2023-05-21T22:08:15;26.05;;;16.50;;
28605;SDS011;46498;49.968;7.754;2023-05-21T22:13:16;23.15;;;15.48;;
28605;SDS011;46498;49.968;7.754;2023-05-21T22:18:17;20.88;;;15.35;;
28605;SDS011;46498;49.968;7.754;2023-05-21T22:23:25;22.48;;;16.40;;
28605;SDS011;46498;49.968;7.754;2023-05-21T22:28:26;25.27;;;16.98;;
28605;SDS011;46498;49.968;7.754;2023-05-21T22:33:27;22.40;;;15.77;;
28605;SDS011;46498;49.968;7.754;2023-05-21T22:38:29;20.37;;;16.03;;
28605;SDS011;46498;49.968;7.754;2023-05-21T22:43:31;23.05;;;15.52;;
28605;SDS011;46498;49.968;7.754;2023-05-21T22:53:36;23.45;;;16.95;;
28605;SDS011;46498;49.968;7.754;2023-05-21T22:58:37;25.33;;;17.30;;
28605;SDS011;46498;49.968;7.754;2023-05-21T23:03:38;25.75;;;16.95;;
28605;SDS011;46498;49.968;7.754;2023-05-21T23:08:39;25.12;;;18.23;;
28605;SDS011;46498;49.968;7.754;2023-05-21T23:13:40;25.33;;;17.33;;
28605;SDS011;46498;49.968;7.754;2023-05-21T23:18:41;25.95;;;18.10;;
28605;SDS011;46498;49.968;7.754;2023-05-21T23:23:41;24.58;;;17.80;;
28605;SDS011;46498;49.968;7.754;2023-05-21T23:28:42;25.48;;;17.08;;
28605;SDS011;46498;49.968;7.754;2023-05-21T23:33:43;27.20;;;18.95;;
28605;SDS011;46498;49.968;7.754;2023-05-21T23:38:44;25.27;;;17.67;;
28605;SDS011;46498;49.968;7.754;2023-05-21T23:43:45;23.30;;;17.35;;
28605;SDS011;46498;49.968;7.754;2023-05-21T23:48:46;26.60;;;17.58;;
28605;SDS011;46498;49.968;7.754;2023-05-21T23:53:47;33.08;;;19.20;;
28605;SDS011;46498;49.968;7.754;2023-05-21T23:58:48;26.30;;;18.25;;
